createdAt,value
2024-02-26T00:01:10.514Z,7.10
2024-02-26T00:03:38.691Z,7.40
2024-02-26T00:06:07.321Z,6.80
2024-02-26T00:08:35.602Z,6.80
2024-02-26T00:11:03.838Z,6.80
2024-02-26T00:13:33.590Z,6.80
2024-02-26T00:16:01.851Z,7.00
2024-02-26T00:18:30.163Z,7.70
2024-02-26T00:20:58.420Z,6.90
2024-02-26T00:23:26.509Z,6.90
2024-02-26T00:25:54.826Z,6.90
2024-02-26T00:28:24.136Z,7.20
2024-02-26T00:30:57.289Z,6.90
2024-02-26T00:33:25.911Z,6.90
2024-02-26T00:35:54.557Z,7.30
2024-02-26T00:38:23.172Z,7.20
2024-02-26T00:40:51.419Z,6.90
2024-02-26T00:43:19.782Z,7.90
2024-02-26T00:45:48.465Z,7.30
2024-02-26T00:48:18.550Z,6.80
2024-02-26T00:50:46.832Z,7.00
2024-02-26T00:53:14.974Z,7.00
2024-02-26T00:55:43.696Z,7.30
2024-02-26T00:58:12.935Z,7.00
2024-02-26T01:00:45.822Z,7.00
2024-02-26T01:03:14.091Z,7.00
2024-02-26T01:05:45.084Z,7.00
2024-02-26T01:08:13.400Z,7.00
2024-02-26T01:10:41.916Z,7.00
2024-02-26T01:13:10.154Z,7.10
2024-02-26T01:15:38.371Z,7.10
2024-02-26T01:18:09.732Z,7.10
2024-02-26T01:20:38.110Z,7.00
2024-02-26T01:23:10.338Z,7.00
2024-02-26T01:25:39.651Z,7.20
2024-02-26T01:28:08.495Z,7.00
2024-02-26T01:30:42.355Z,6.60
2024-02-26T01:33:10.522Z,7.00
2024-02-26T01:35:38.809Z,7.30
2024-02-26T01:38:08.467Z,6.90
2024-02-26T01:40:37.685Z,7.40
2024-02-26T01:43:06.262Z,7.20
2024-02-26T01:45:36.159Z,7.00
2024-02-26T01:48:09.737Z,7.40
2024-02-26T01:50:39.317Z,7.00
2024-02-26T01:53:10.251Z,7.00
2024-02-26T01:55:38.812Z,7.40
2024-02-26T01:58:10.402Z,7.10
2024-02-26T02:00:39.678Z,7.10
2024-02-26T02:03:08.638Z,7.30
2024-02-26T02:05:42.985Z,7.10
2024-02-26T02:08:13.717Z,7.30
2024-02-26T02:10:43.402Z,7.10
2024-02-26T02:13:11.605Z,7.20
2024-02-26T02:15:39.656Z,7.10
2024-02-26T02:18:08.744Z,6.90
2024-02-26T02:21:29.010Z,7.10
2024-02-26T02:23:58.557Z,7.10
2024-02-26T02:26:26.974Z,8.30
2024-02-26T02:28:58.953Z,7.20
2024-02-26T02:31:31.978Z,7.10
2024-02-26T02:34:00.732Z,7.10
2024-02-26T02:36:29.163Z,7.60
2024-02-26T02:39:00.638Z,7.30
2024-02-26T02:41:30.977Z,7.50
2024-02-26T02:43:59.218Z,7.90
2024-02-26T02:46:27.385Z,7.20
2024-02-26T02:48:55.916Z,7.20
2024-02-26T02:51:24.066Z,7.40
2024-02-26T02:53:52.377Z,7.20
2024-02-26T02:56:22.137Z,7.10
2024-02-26T02:58:50.465Z,7.20
2024-02-26T03:01:18.598Z,7.20
2024-02-26T03:03:46.922Z,7.20
2024-02-26T03:06:15.091Z,8.40
2024-02-26T03:08:43.412Z,7.50
2024-02-26T03:11:16.455Z,7.60
2024-02-26T03:13:46.746Z,7.50
2024-02-26T03:16:15.546Z,8.00
2024-02-26T03:18:43.657Z,7.20
2024-02-26T03:21:11.839Z,7.40
2024-02-26T03:23:40.041Z,7.10
2024-02-26T03:26:09.836Z,7.10
2024-02-26T03:28:38.130Z,7.10
2024-02-26T03:31:07.934Z,7.90
2024-02-26T03:33:37.227Z,7.10
2024-02-26T03:36:06.213Z,7.30
2024-02-26T03:38:34.354Z,7.20
2024-02-26T03:41:02.260Z,7.20
2024-02-26T03:43:30.336Z,7.20
2024-02-26T03:45:58.302Z,7.10
2024-02-26T03:48:28.220Z,7.10
2024-02-26T03:50:56.453Z,7.30
2024-02-26T03:53:24.440Z,7.30
2024-02-26T03:55:54.033Z,6.90
2024-02-26T03:58:23.982Z,7.20
2024-02-26T04:00:55.119Z,6.90
2024-02-26T04:03:24.327Z,6.90
2024-02-26T04:05:58.625Z,8.00
2024-02-26T04:08:26.976Z,6.90
2024-02-26T04:10:55.240Z,6.90
2024-02-26T04:13:23.793Z,7.00
2024-02-26T04:15:51.834Z,7.10
2024-02-26T04:18:20.043Z,6.90
2024-02-26T04:20:48.321Z,6.80
2024-02-26T04:23:18.600Z,6.80
2024-02-26T04:25:46.884Z,6.60
2024-02-26T04:28:14.959Z,6.70
2024-02-26T04:30:44.417Z,6.90
2024-02-26T04:33:12.856Z,6.70
2024-02-26T04:35:41.377Z,7.10
2024-02-26T04:38:09.442Z,6.70
2024-02-26T04:40:38.997Z,6.70
2024-02-26T04:43:07.166Z,6.80
2024-02-26T04:45:35.208Z,6.80
2024-02-26T04:48:04.470Z,7.00
2024-02-26T04:50:32.878Z,7.10
2024-02-26T04:53:03.707Z,6.80
2024-02-26T04:55:32.090Z,6.80
2024-02-26T04:58:01.868Z,7.40
2024-02-26T05:00:30.118Z,6.70
2024-02-26T05:02:58.379Z,6.80
2024-02-26T05:05:26.880Z,7.10
2024-02-26T05:07:55.129Z,6.70
2024-02-26T05:10:23.449Z,6.90
2024-02-26T05:12:52.233Z,6.70
2024-02-26T05:15:21.989Z,7.00
2024-02-26T05:17:51.770Z,6.70
2024-02-26T05:20:20.531Z,6.70
2024-02-26T05:22:49.161Z,6.60
2024-02-26T05:25:17.759Z,6.60
2024-02-26T05:27:46.520Z,6.60
2024-02-26T05:30:15.327Z,6.60
2024-02-26T05:32:45.046Z,6.60
2024-02-26T05:35:13.464Z,6.60
2024-02-26T05:37:41.554Z,6.60
2024-02-26T05:40:10.355Z,6.60
2024-02-26T05:42:38.570Z,6.50
2024-02-26T05:45:08.454Z,6.40
2024-02-26T05:47:36.815Z,6.50
2024-02-26T05:50:07.718Z,7.80
2024-02-26T05:52:36.021Z,6.40
2024-02-26T05:55:05.696Z,6.40
2024-02-26T05:57:34.442Z,6.40
2024-02-26T06:00:05.102Z,6.50
2024-02-26T06:02:33.829Z,7.70
2024-02-26T06:05:01.888Z,6.20
2024-02-26T06:07:32.699Z,6.40
2024-02-26T06:10:00.840Z,6.30
2024-02-26T06:12:29.805Z,6.30
2024-02-26T06:14:58.431Z,6.40
2024-02-26T06:17:26.629Z,6.60
2024-02-26T06:19:55.099Z,6.40
2024-02-26T06:22:23.469Z,6.50
2024-02-26T06:24:53.485Z,6.40
2024-02-26T06:27:23.129Z,6.40
2024-02-26T06:29:53.377Z,6.50
2024-02-26T06:32:24.328Z,6.30
2024-02-26T06:34:53.059Z,6.50
2024-02-26T06:37:21.274Z,6.40
2024-02-26T06:39:49.331Z,6.40
2024-02-26T06:42:19.020Z,6.40
2024-02-26T06:44:47.189Z,6.40
2024-02-26T06:47:15.556Z,6.60
2024-02-26T06:49:44.942Z,6.40
2024-02-26T06:52:13.811Z,6.40
2024-02-26T06:54:42.971Z,6.60
2024-02-26T06:57:11.247Z,7.60
2024-02-26T06:59:41.466Z,6.50
2024-02-26T07:02:13.082Z,6.50
2024-02-26T07:04:43.068Z,6.50
2024-02-26T07:07:11.837Z,7.60
2024-02-26T07:09:39.997Z,7.10
2024-02-26T07:12:08.509Z,6.60
2024-02-26T07:14:38.776Z,6.50
2024-02-26T07:17:08.413Z,7.10
2024-02-26T07:19:36.747Z,6.50
2024-02-26T07:22:04.925Z,6.50
2024-02-26T07:24:33.251Z,6.50
2024-02-26T07:27:01.517Z,6.50
2024-02-26T07:29:29.724Z,7.60
2024-02-26T07:31:58.676Z,6.30
2024-02-26T07:34:30.817Z,7.00
2024-02-26T07:36:59.226Z,6.50
2024-02-26T07:39:27.376Z,6.50
2024-02-26T07:41:55.891Z,6.80
2024-02-26T07:44:24.092Z,6.70
2024-02-26T07:46:52.293Z,6.70
2024-02-26T07:49:22.497Z,6.70
2024-02-26T07:51:59.456Z,6.40
2024-02-26T07:54:27.693Z,7.40
2024-02-26T07:56:58.914Z,7.50
2024-02-26T07:59:27.069Z,6.40
2024-02-26T08:01:58.760Z,7.00
2024-02-26T08:04:28.263Z,6.50
2024-02-26T08:06:57.928Z,6.80
2024-02-26T08:09:26.290Z,6.80
2024-02-26T08:11:54.693Z,6.50
2024-02-26T08:14:22.979Z,6.40
2024-02-26T08:16:54.888Z,6.60
2024-02-26T08:19:23.451Z,6.40
2024-02-26T08:21:51.609Z,6.70
2024-02-26T08:24:21.192Z,6.70
2024-02-26T08:26:49.706Z,7.20
2024-02-26T08:29:17.903Z,6.70
2024-02-26T08:31:46.148Z,6.40
2024-02-26T08:34:15.619Z,6.40
2024-02-26T08:36:44.583Z,6.40
2024-02-26T08:39:15.168Z,6.40
2024-02-26T08:41:45.391Z,6.70
2024-02-26T08:44:13.651Z,6.90
2024-02-26T08:46:42.004Z,6.50
2024-02-26T08:49:10.316Z,6.80
2024-02-26T08:51:44.064Z,6.60
2024-02-26T08:54:12.533Z,7.70
2024-02-26T08:56:40.925Z,6.60
2024-02-26T08:59:10.579Z,6.60
2024-02-26T09:01:38.972Z,6.70
2024-02-26T09:04:07.158Z,6.60
2024-02-26T09:06:35.440Z,6.50
2024-02-26T09:09:04.959Z,7.20
2024-02-26T09:11:33.327Z,6.50
2024-02-26T09:14:01.573Z,6.70
2024-02-26T09:16:31.305Z,7.00
2024-02-26T09:18:59.887Z,7.10
2024-02-26T09:21:28.128Z,6.90
2024-02-26T09:23:59.151Z,7.90
2024-02-26T09:26:27.289Z,6.70
2024-02-26T09:28:55.633Z,6.70
2024-02-26T09:31:23.698Z,7.20
2024-02-26T09:33:53.488Z,6.80
2024-02-26T09:36:22.763Z,7.50
2024-02-26T09:38:56.710Z,6.80
2024-02-26T09:41:30.919Z,7.00
2024-02-26T09:44:01.032Z,6.60
2024-02-26T09:46:29.624Z,7.20
2024-02-26T09:48:59.709Z,6.70
2024-02-26T09:51:28.660Z,7.00
2024-02-26T09:53:58.597Z,6.80
2024-02-26T09:56:27.686Z,7.70
2024-02-26T09:58:58.189Z,7.00
2024-02-26T10:01:26.517Z,7.40
2024-02-26T10:03:59.733Z,6.90
2024-02-26T10:06:29.002Z,6.70
2024-02-26T10:09:00.263Z,6.80
2024-02-26T10:11:31.600Z,7.00
2024-02-26T10:14:01.571Z,6.70
2024-02-26T10:16:30.570Z,6.90
2024-02-26T10:19:00.739Z,7.80
2024-02-26T10:21:28.427Z,7.10
2024-02-26T10:23:56.610Z,6.70
2024-02-26T10:26:24.807Z,7.30
2024-02-26T10:28:55.782Z,6.80
2024-02-26T10:31:38.803Z,7.50
2024-02-26T10:34:09.389Z,6.90
2024-02-26T10:36:44.355Z,6.80
2024-02-26T10:39:20.623Z,6.80
2024-02-26T10:41:48.956Z,6.80
2024-02-26T10:44:19.041Z,6.70
2024-02-26T10:46:50.165Z,7.70
2024-02-26T10:49:22.328Z,6.80
2024-02-26T10:51:58.570Z,6.80
2024-02-26T10:54:29.870Z,6.80
2024-02-26T10:57:02.907Z,6.70
2024-02-26T10:59:34.346Z,6.70
2024-02-26T11:02:03.459Z,6.70
2024-02-26T11:04:33.549Z,7.30
2024-02-26T11:07:02.493Z,6.70
2024-02-26T11:09:31.160Z,6.80
2024-02-26T11:12:00.737Z,7.10
2024-02-26T11:14:32.254Z,7.30
2024-02-26T11:17:02.174Z,6.90
2024-02-26T11:19:33.864Z,7.10
2024-02-26T11:22:12.364Z,7.10
2024-02-26T11:24:49.877Z,6.90
2024-02-26T11:27:20.463Z,6.90
2024-02-26T11:29:52.121Z,7.60
2024-02-26T11:32:20.431Z,7.40
2024-02-26T11:34:51.115Z,6.90
2024-02-26T11:37:20.087Z,6.90
2024-02-26T11:39:48.706Z,6.90
2024-02-26T11:42:18.119Z,6.80
2024-02-26T11:44:46.249Z,6.80
2024-02-26T11:47:15.352Z,6.70
2024-02-26T11:49:43.521Z,6.80
2024-02-26T11:52:13.898Z,6.90
2024-02-26T11:54:46.097Z,6.90
2024-02-26T11:57:28.902Z,6.90
2024-02-26T11:59:58.249Z,6.90
2024-02-26T12:02:48.122Z,7.10
2024-02-26T12:05:19.085Z,6.80
2024-02-26T12:07:50.203Z,6.90
2024-02-26T12:10:29.914Z,6.90
2024-02-26T12:13:02.873Z,7.30
2024-02-26T12:15:36.293Z,7.00
2024-02-26T12:18:06.150Z,7.10
2024-02-26T12:20:34.581Z,7.10
2024-02-26T12:23:05.133Z,7.20
2024-02-26T12:25:34.077Z,7.90
2024-02-26T12:28:02.502Z,7.00
2024-02-26T12:30:33.886Z,7.00
2024-02-26T12:33:02.427Z,7.00
2024-02-26T12:35:32.863Z,7.00
2024-02-26T12:38:01.779Z,8.00
2024-02-26T12:40:31.225Z,6.80
2024-02-26T12:43:00.260Z,7.40
2024-02-26T12:45:29.622Z,7.20
2024-02-26T12:48:02.016Z,7.10
2024-02-26T12:50:30.831Z,7.10
2024-02-26T12:52:59.224Z,7.00
2024-02-26T12:55:28.240Z,7.40
2024-02-26T12:57:58.433Z,7.20
2024-02-26T13:00:29.777Z,7.40
2024-02-26T13:02:58.809Z,7.10
2024-02-26T13:05:27.700Z,7.10
2024-02-26T13:07:55.960Z,7.20
2024-02-26T13:10:24.040Z,7.00
2024-02-26T13:12:52.891Z,7.80
2024-02-26T13:15:23.802Z,7.20
2024-02-26T13:17:52.857Z,7.60
2024-02-26T13:20:30.131Z,7.40
2024-02-26T13:23:06.316Z,7.40
2024-02-26T13:25:35.133Z,7.30
2024-02-26T13:28:10.485Z,8.00
2024-02-26T13:30:40.027Z,7.40
2024-02-26T13:33:13.264Z,7.70
2024-02-26T13:35:41.977Z,8.50
2024-02-26T13:38:10.493Z,7.40
2024-02-26T13:40:38.729Z,7.80
2024-02-26T13:43:07.219Z,7.50
2024-02-26T13:45:37.388Z,7.90
2024-02-26T13:48:08.708Z,7.50
2024-02-26T13:50:37.321Z,7.50
2024-02-26T13:53:05.610Z,7.70
2024-02-26T13:55:34.332Z,7.50
2024-02-26T13:58:06.606Z,7.60
2024-02-26T14:00:36.397Z,7.20
2024-02-26T14:03:07.362Z,7.50
2024-02-26T14:05:35.684Z,7.70
2024-02-26T14:08:05.839Z,7.70
2024-02-26T14:10:34.915Z,7.80
2024-02-26T14:13:03.146Z,7.80
2024-02-26T14:15:32.118Z,7.80
2024-02-26T14:18:04.106Z,7.80
2024-02-26T14:20:34.021Z,7.90
2024-02-26T14:23:02.587Z,8.70
2024-02-26T14:25:33.925Z,8.00
2024-02-26T14:28:04.581Z,8.10
2024-02-26T14:30:35.000Z,7.80
2024-02-26T14:33:06.818Z,7.70
2024-02-26T14:35:39.632Z,7.90
2024-02-26T14:38:08.142Z,7.90
2024-02-26T14:40:36.693Z,7.90
2024-02-26T14:43:08.037Z,8.10
2024-02-26T14:45:36.364Z,8.20
2024-02-26T14:48:05.045Z,7.90
2024-02-26T14:50:33.621Z,7.80
2024-02-26T14:53:11.062Z,7.80
2024-02-26T14:55:42.515Z,7.80
2024-02-26T14:58:12.221Z,8.20
2024-02-26T15:00:48.500Z,8.50
2024-02-26T15:03:19.862Z,7.90
2024-02-26T15:05:48.596Z,7.80
2024-02-26T15:08:18.762Z,8.10
2024-02-26T15:10:49.776Z,8.00
2024-02-26T15:13:19.333Z,8.10
2024-02-26T15:15:48.221Z,8.20
2024-02-26T15:18:18.270Z,8.20
2024-02-26T15:20:47.495Z,7.90
2024-02-26T15:23:18.849Z,9.00
2024-02-26T15:25:47.624Z,8.00
2024-02-26T15:28:16.462Z,8.10
2024-02-26T15:30:44.891Z,7.70
2024-02-26T15:33:13.330Z,7.90
2024-02-26T15:35:43.563Z,8.00
2024-02-26T15:38:12.022Z,8.30
2024-02-26T15:40:41.571Z,8.40
2024-02-26T15:43:12.311Z,8.80
2024-02-26T15:45:41.362Z,8.00
2024-02-26T15:48:11.411Z,8.00
2024-02-26T15:50:43.648Z,8.20
2024-02-26T15:53:15.685Z,8.00
2024-02-26T15:55:46.034Z,8.00
2024-02-26T15:58:14.355Z,8.10
2024-02-26T16:00:43.361Z,8.10
2024-02-26T16:03:18.759Z,7.80
2024-02-26T16:05:51.808Z,8.10
2024-02-26T16:08:25.112Z,7.80
2024-02-26T16:10:56.589Z,7.60
2024-02-26T16:13:29.639Z,7.80
2024-02-26T16:16:16.106Z,7.90
2024-02-26T16:18:47.460Z,8.10
2024-02-26T16:21:16.222Z,7.80
2024-02-26T16:23:44.658Z,7.60
2024-02-26T16:26:14.358Z,7.80
2024-02-26T16:28:42.583Z,8.60
2024-02-26T16:31:10.821Z,8.00
2024-02-26T16:33:39.337Z,8.00
2024-02-26T16:36:13.314Z,7.70
2024-02-26T16:38:44.098Z,7.60
2024-02-26T16:41:19.430Z,7.90
2024-02-26T16:43:47.966Z,7.50
2024-02-26T16:46:17.935Z,7.80
2024-02-26T16:48:52.707Z,7.60
2024-02-26T16:51:21.620Z,8.60
2024-02-26T16:53:51.995Z,7.60
2024-02-26T16:56:24.648Z,7.30
2024-02-26T16:58:54.847Z,7.30
2024-02-26T17:01:25.735Z,7.90
2024-02-26T17:03:54.403Z,7.20
2024-02-26T17:06:25.258Z,7.40
2024-02-26T17:08:54.521Z,7.40
2024-02-26T17:11:25.250Z,7.30
2024-02-26T17:14:21.931Z,7.20
2024-02-26T17:17:07.544Z,7.20
2024-02-26T17:19:36.436Z,7.30
2024-02-26T17:22:04.829Z,7.00
2024-02-26T17:24:34.219Z,7.00
2024-02-26T17:27:04.137Z,6.90
2024-02-26T17:29:33.647Z,7.00
2024-02-26T17:32:05.646Z,7.30
2024-02-26T17:34:38.787Z,7.50
2024-02-26T17:37:08.201Z,8.10
2024-02-26T17:39:39.155Z,6.90
2024-02-26T17:42:09.181Z,6.70
2024-02-26T17:44:39.428Z,6.90
2024-02-26T17:47:08.694Z,7.00
2024-02-26T17:49:37.763Z,7.20
2024-02-26T17:52:07.116Z,8.10
2024-02-26T17:54:35.652Z,6.80
2024-02-26T17:57:04.166Z,7.00
2024-02-26T17:59:36.890Z,6.70
2024-02-26T18:02:06.199Z,6.60
2024-02-26T18:04:34.756Z,6.60
2024-02-26T18:07:03.340Z,6.70
2024-02-26T18:09:31.800Z,6.90
2024-02-26T18:12:01.654Z,6.60
2024-02-26T18:14:30.178Z,7.50
2024-02-26T18:17:01.193Z,6.60
2024-02-26T18:19:30.108Z,6.30
2024-02-26T18:22:00.097Z,6.90
2024-02-26T18:24:28.574Z,6.60
2024-02-26T18:26:56.907Z,6.60
2024-02-26T18:29:28.027Z,6.50
2024-02-26T18:32:00.200Z,6.50
2024-02-26T18:34:29.008Z,6.50
2024-02-26T18:36:57.852Z,6.70
2024-02-26T18:39:26.381Z,6.50
2024-02-26T18:41:58.638Z,6.60
2024-02-26T18:44:29.248Z,6.20
2024-02-26T18:46:57.455Z,6.50
2024-02-26T18:49:28.901Z,6.60
2024-02-26T18:51:57.402Z,6.40
2024-02-26T18:54:27.875Z,7.10
2024-02-26T18:56:56.804Z,6.40
2024-02-26T18:59:25.434Z,6.70
2024-02-26T19:01:55.677Z,6.40
2024-02-26T19:05:20.906Z,7.40
2024-02-26T19:07:58.257Z,6.60
2024-02-26T19:10:29.764Z,6.50
2024-02-26T19:12:58.795Z,6.30
2024-02-26T19:15:30.184Z,6.10
2024-02-26T19:18:02.098Z,6.30
2024-02-26T19:20:33.411Z,6.20
2024-02-26T19:23:03.411Z,6.30
2024-02-26T19:25:35.195Z,6.60
2024-02-26T19:28:03.990Z,6.30
2024-02-26T19:30:36.972Z,6.60
2024-02-26T19:33:12.320Z,6.10
2024-02-26T19:35:41.133Z,6.60
2024-02-26T19:38:12.551Z,6.50
2024-02-26T19:40:41.065Z,6.30
2024-02-26T19:43:13.814Z,7.40
2024-02-26T19:45:46.728Z,6.30
2024-02-26T19:48:15.914Z,7.30
2024-02-26T19:50:50.905Z,6.60
2024-02-26T19:53:25.574Z,6.50
2024-02-26T19:55:54.231Z,6.20
2024-02-26T19:58:22.512Z,6.30
2024-02-26T20:00:56.972Z,6.10
2024-02-26T20:03:30.023Z,6.20
2024-02-26T20:06:01.332Z,6.30
2024-02-26T20:08:39.048Z,6.10
2024-02-26T20:11:17.230Z,6.50
2024-02-26T20:13:45.959Z,6.00
2024-02-26T20:16:24.822Z,5.80
2024-02-26T20:18:53.244Z,6.40
2024-02-26T20:21:42.280Z,6.50
2024-02-26T20:24:24.874Z,6.00
2024-02-26T20:27:06.761Z,6.00
2024-02-26T20:29:40.142Z,5.80
2024-02-26T20:32:14.139Z,6.20
2024-02-26T20:34:48.131Z,5.90
2024-02-26T20:37:24.827Z,5.90
2024-02-26T20:40:00.496Z,6.30
2024-02-26T20:42:28.934Z,5.90
2024-02-26T20:44:57.991Z,6.20
2024-02-26T20:47:26.456Z,5.90
2024-02-26T20:49:58.153Z,5.80
2024-02-26T20:52:29.438Z,5.80
2024-02-26T20:54:59.483Z,6.00
2024-02-26T20:57:27.953Z,6.10
2024-02-26T20:59:56.536Z,6.20
2024-02-26T21:02:29.830Z,5.80
2024-02-26T21:05:02.626Z,6.10
2024-02-26T21:07:31.369Z,5.80
2024-02-26T21:10:01.474Z,5.80
2024-02-26T21:12:30.015Z,6.60
2024-02-26T21:14:58.383Z,6.10
2024-02-26T21:17:26.845Z,5.70
2024-02-26T21:19:55.371Z,5.70
2024-02-26T21:22:25.448Z,5.90
2024-02-26T21:24:56.884Z,5.70
2024-02-26T21:27:26.762Z,6.70
2024-02-26T21:29:55.234Z,5.70
2024-02-26T21:32:23.621Z,5.70
2024-02-26T21:34:51.957Z,6.10
2024-02-26T21:37:20.279Z,6.00
2024-02-26T21:39:48.624Z,6.00
2024-02-26T21:42:18.050Z,6.10
2024-02-26T21:44:51.878Z,6.60
2024-02-26T21:47:22.264Z,5.90
2024-02-26T21:49:50.668Z,5.90
2024-02-26T21:52:20.873Z,6.10
2024-02-26T21:54:53.121Z,6.10
2024-02-26T21:57:21.395Z,6.10
2024-02-26T21:59:51.304Z,6.10
2024-02-26T22:02:19.610Z,6.20
2024-02-26T22:04:48.141Z,6.90
2024-02-26T22:07:16.537Z,5.80
2024-02-26T22:09:45.070Z,6.10
2024-02-26T22:12:13.445Z,6.00
2024-02-26T22:14:42.488Z,5.70
2024-02-26T22:17:13.661Z,6.60
2024-02-26T22:19:42.070Z,6.00
2024-02-26T22:22:10.455Z,6.40
2024-02-26T22:24:39.385Z,5.90
2024-02-26T22:27:12.351Z,5.90
2024-02-26T22:29:40.616Z,5.80
2024-02-26T22:32:09.224Z,6.10
2024-02-26T22:34:39.226Z,5.70
2024-02-26T22:37:07.533Z,5.90
2024-02-26T22:39:36.134Z,5.80
2024-02-26T22:42:07.127Z,5.80
2024-02-26T22:44:35.559Z,5.80
2024-02-26T22:47:04.384Z,5.70
2024-02-26T22:49:33.607Z,6.20
2024-02-26T22:52:03.390Z,5.50
2024-02-26T22:54:32.532Z,5.70
2024-02-26T22:57:00.816Z,5.70
2024-02-26T22:59:31.508Z,6.20
2024-02-26T23:01:59.739Z,6.00
2024-02-26T23:04:27.995Z,5.90
2024-02-26T23:06:56.966Z,5.80
2024-02-26T23:09:26.977Z,5.70
2024-02-26T23:11:55.339Z,5.70
2024-02-26T23:14:23.614Z,6.00
2024-02-26T23:16:51.856Z,5.80
2024-02-26T23:19:20.168Z,5.60
2024-02-26T23:21:48.596Z,5.40
2024-02-26T23:24:16.898Z,5.80
2024-02-26T23:26:46.635Z,5.60
2024-02-26T23:29:14.864Z,5.80
2024-02-26T23:31:43.459Z,5.60
2024-02-26T23:34:11.819Z,5.80
2024-02-26T23:36:40.317Z,5.50
2024-02-26T23:39:11.352Z,5.90
2024-02-26T23:41:39.574Z,5.60
2024-02-26T23:44:10.713Z,5.20
2024-02-26T23:46:39.160Z,5.90
2024-02-26T23:49:07.894Z,6.30
2024-02-26T23:51:36.414Z,5.50
2024-02-26T23:54:04.916Z,5.80
2024-02-26T23:56:34.414Z,5.50
2024-02-26T23:59:02.774Z,5.90
